createdAt,value
2017-11-17T00:00:47.411Z,6.30
2017-11-17T00:03:15.679Z,6.30
2017-11-17T00:05:44.695Z,6.50
2017-11-17T00:08:12.947Z,6.40
2017-11-17T00:10:41.215Z,6.50
2017-11-17T00:13:09.599Z,6.50
2017-11-17T00:15:38.607Z,6.50
2017-11-17T00:18:06.949Z,6.50
2017-11-17T00:20:35.228Z,6.40
2017-11-17T00:23:03.502Z,6.30
2017-11-17T00:25:31.778Z,6.40
2017-11-17T00:28:00.027Z,6.50
2017-11-17T00:30:28.279Z,6.50
2017-11-17T00:32:56.547Z,6.50
2017-11-17T00:35:24.787Z,6.50
2017-11-17T00:37:53.031Z,6.30
2017-11-17T00:40:21.719Z,6.20
2017-11-17T00:42:49.959Z,6.00
2017-11-17T00:45:18.203Z,6.00
2017-11-17T00:47:46.503Z,6.00
2017-11-17T00:50:14.732Z,6.10
2017-11-17T00:52:42.979Z,6.20
2017-11-17T00:55:11.251Z,6.30
2017-11-17T00:57:39.671Z,6.40
2017-11-17T01:00:07.910Z,6.50
2017-11-17T01:02:36.396Z,6.60
2017-11-17T01:05:04.639Z,6.40
2017-11-17T01:07:32.884Z,6.40
2017-11-17T01:10:01.160Z,6.30
2017-11-17T01:12:29.403Z,6.30
2017-11-17T01:14:57.651Z,6.20
2017-11-17T01:17:25.923Z,6.30
2017-11-17T01:19:54.926Z,6.50
2017-11-17T01:22:23.943Z,6.50
2017-11-17T01:24:52.648Z,6.50
2017-11-17T01:27:20.883Z,6.50
2017-11-17T01:29:49.899Z,6.40
2017-11-17T01:32:18.179Z,6.40
2017-11-17T01:34:46.427Z,6.40
2017-11-17T01:37:14.673Z,6.30
2017-11-17T01:39:42.942Z,6.30
2017-11-17T01:42:11.180Z,6.30
2017-11-17T01:44:39.562Z,6.30
2017-11-17T01:47:08.259Z,6.40
2017-11-17T01:49:36.499Z,6.40
2017-11-17T01:52:04.739Z,6.30
2017-11-17T01:54:33.006Z,6.20
2017-11-17T01:57:01.253Z,6.10
2017-11-17T01:59:30.087Z,6.00
2017-11-17T02:01:58.359Z,6.10
2017-11-17T02:04:26.615Z,6.20
2017-11-17T02:06:54.855Z,6.40
2017-11-17T02:09:23.692Z,6.40
2017-11-17T02:11:51.932Z,6.40
2017-11-17T02:14:20.175Z,6.40
2017-11-17T02:16:48.478Z,6.50
2017-11-17T02:19:16.723Z,6.60
2017-11-17T02:21:44.973Z,6.60
2017-11-17T02:24:13.241Z,6.60
2017-11-17T02:26:41.487Z,6.60
2017-11-17T02:29:09.755Z,6.50
2017-11-17T02:31:38.478Z,6.60
2017-11-17T02:34:06.731Z,6.60
2017-11-17T02:36:34.968Z,6.50
2017-11-17T02:39:03.236Z,6.50
2017-11-17T02:41:31.479Z,6.50
2017-11-17T02:43:59.739Z,6.50
2017-11-17T02:46:28.008Z,6.60
2017-11-17T02:48:56.257Z,6.50
2017-11-17T02:51:24.496Z,6.60
2017-11-17T02:53:53.273Z,6.60
2017-11-17T02:56:21.519Z,6.60
2017-11-17T02:58:49.764Z,6.60
2017-11-17T03:01:18.130Z,6.50
2017-11-17T03:03:46.379Z,6.50
2017-11-17T03:06:14.632Z,6.40
2017-11-17T03:08:42.890Z,6.40
2017-11-17T03:11:11.908Z,6.50
2017-11-17T03:13:40.152Z,6.50
2017-11-17T03:16:08.573Z,6.60
2017-11-17T03:18:36.818Z,6.50
2017-11-17T03:21:05.842Z,6.50
2017-11-17T03:23:34.110Z,6.50
2017-11-17T03:26:02.354Z,6.50
2017-11-17T03:28:30.598Z,6.50
2017-11-17T03:30:58.872Z,6.60
2017-11-17T03:33:27.290Z,6.60
2017-11-17T03:35:56.304Z,6.60
2017-11-17T03:38:24.811Z,6.60
2017-11-17T03:40:53.051Z,6.60
2017-11-17T03:43:22.063Z,6.50
2017-11-17T03:45:50.337Z,6.50
2017-11-17T03:48:18.571Z,6.50
2017-11-17T03:50:46.814Z,6.40
2017-11-17T03:53:15.075Z,6.30
2017-11-17T03:55:43.328Z,6.60
2017-11-17T03:58:12.339Z,6.50
2017-11-17T04:00:40.891Z,6.50
2017-11-17T04:03:09.671Z,6.60
2017-11-17T04:05:38.042Z,6.50
2017-11-17T04:08:06.315Z,6.60
2017-11-17T04:10:34.569Z,6.60
2017-11-17T04:15:37.794Z,6.60
2017-11-17T04:18:06.027Z,6.50
2017-11-17T04:20:34.269Z,6.60
2017-11-17T04:23:02.709Z,6.70
2017-11-17T04:25:30.951Z,6.60
2017-11-17T04:27:59.191Z,6.40
2017-11-17T04:30:27.695Z,6.40
2017-11-17T04:32:56.698Z,6.60
2017-11-17T04:35:25.703Z,6.60
2017-11-17T04:37:53.970Z,6.50
2017-11-17T04:40:22.225Z,6.40
2017-11-17T04:42:50.468Z,6.40
2017-11-17T04:45:18.791Z,6.40
2017-11-17T04:47:47.039Z,6.50
2017-11-17T04:50:15.292Z,6.60
2017-11-17T04:52:43.551Z,6.60
2017-11-17T04:55:11.965Z,6.50
2017-11-17T04:57:40.218Z,6.50
2017-11-17T05:00:08.609Z,6.50
2017-11-17T05:02:36.862Z,6.70
2017-11-17T05:05:05.311Z,6.70
2017-11-17T05:07:34.656Z,6.50
2017-11-17T05:10:02.899Z,6.50
2017-11-17T05:12:31.190Z,6.50
2017-11-17T05:14:59.465Z,6.50
2017-11-17T05:17:27.722Z,6.70
2017-11-17T05:19:55.970Z,6.70
2017-11-17T05:22:24.233Z,6.60
2017-11-17T05:24:52.483Z,6.60
2017-11-17T05:27:20.732Z,6.50
2017-11-17T05:29:50.071Z,6.40
2017-11-17T05:32:18.330Z,6.40
2017-11-17T05:34:46.575Z,6.40
2017-11-17T05:37:14.847Z,6.40
2017-11-17T05:39:43.858Z,6.60
2017-11-17T05:42:12.871Z,6.70
2017-11-17T05:44:41.140Z,6.70
2017-11-17T05:47:09.383Z,6.70
2017-11-17T05:49:37.631Z,6.70
2017-11-17T05:52:06.407Z,6.80
2017-11-17T05:54:34.663Z,6.70
2017-11-17T05:57:02.911Z,6.60
2017-11-17T05:59:31.188Z,6.70
2017-11-17T06:02:00.191Z,6.60
2017-11-17T06:04:29.203Z,6.50
2017-11-17T06:06:57.895Z,6.50
2017-11-17T06:09:26.144Z,6.50
2017-11-17T06:11:54.386Z,6.60
2017-11-17T06:14:22.838Z,6.70
2017-11-17T06:16:51.238Z,6.80
2017-11-17T06:19:19.466Z,6.70
2017-11-17T06:21:47.735Z,6.70
2017-11-17T06:24:15.992Z,6.70
2017-11-17T06:26:44.231Z,6.80
2017-11-17T06:29:12.553Z,6.80
2017-11-17T06:31:40.792Z,6.80
2017-11-17T06:34:09.039Z,6.80
2017-11-17T06:36:37.844Z,6.70
2017-11-17T06:39:06.086Z,6.70
2017-11-17T06:41:34.331Z,6.80
2017-11-17T06:44:02.600Z,6.80
2017-11-17T06:46:30.866Z,6.80
2017-11-17T06:48:59.206Z,6.60
2017-11-17T06:51:27.462Z,6.60
2017-11-17T06:53:56.479Z,6.80
2017-11-17T06:56:24.730Z,6.80
2017-11-17T06:58:55.102Z,6.80
2017-11-17T07:01:23.347Z,7.00
2017-11-17T07:03:51.587Z,7.00
2017-11-17T07:06:19.866Z,6.90
2017-11-17T07:08:48.210Z,6.90
2017-11-17T07:11:16.457Z,6.80
2017-11-17T07:13:44.723Z,6.80
2017-11-17T07:16:13.739Z,6.70
2017-11-17T07:18:41.979Z,6.70
2017-11-17T07:21:10.534Z,6.70
2017-11-17T07:23:38.820Z,6.60
2017-11-17T07:26:07.024Z,6.70
2017-11-17T07:28:36.060Z,6.80
2017-11-17T07:31:04.305Z,6.80
2017-11-17T07:33:33.318Z,6.90
2017-11-17T07:36:01.582Z,6.90
2017-11-17T07:38:29.822Z,6.80
2017-11-17T07:40:58.074Z,6.80
2017-11-17T07:43:26.495Z,6.80
2017-11-17T07:45:54.743Z,6.90
2017-11-17T07:48:22.990Z,6.90
2017-11-17T07:50:51.259Z,6.90
2017-11-17T07:53:19.502Z,6.90
2017-11-17T07:55:47.755Z,7.00
2017-11-17T07:58:16.023Z,7.10
2017-11-17T08:00:44.272Z,7.10
2017-11-17T08:03:12.511Z,7.20
2017-11-17T08:05:40.975Z,7.20
2017-11-17T08:08:09.226Z,7.10
2017-11-17T08:10:37.768Z,7.10
2017-11-17T08:13:06.046Z,7.10
2017-11-17T08:15:34.322Z,7.20
2017-11-17T08:18:14.389Z,7.20
2017-11-17T08:20:42.633Z,7.20
2017-11-17T08:23:11.647Z,7.20
2017-11-17T08:25:40.360Z,7.20
2017-11-17T08:28:08.607Z,7.10
2017-11-17T08:30:36.868Z,7.10
2017-11-17T08:33:05.902Z,7.10
2017-11-17T08:35:34.165Z,7.10
2017-11-17T08:38:02.403Z,7.00
2017-11-17T08:40:30.670Z,7.10
2017-11-17T08:42:58.911Z,7.00
2017-11-17T08:45:27.154Z,7.10
2017-11-17T08:47:55.706Z,7.10
2017-11-17T08:50:23.951Z,7.20
2017-11-17T08:52:52.200Z,7.30
2017-11-17T08:55:20.475Z,7.40
2017-11-17T08:57:48.720Z,7.40
2017-11-17T09:00:16.963Z,7.30
2017-11-17T09:02:45.235Z,7.40
2017-11-17T09:05:13.491Z,7.40
2017-11-17T09:07:41.732Z,7.40
2017-11-17T09:10:10.083Z,7.50
2017-11-17T09:12:38.595Z,7.50
2017-11-17T09:15:07.609Z,7.60
2017-11-17T09:17:35.872Z,7.60
2017-11-17T09:20:04.115Z,7.60
2017-11-17T09:22:32.360Z,7.50
2017-11-17T09:25:00.653Z,7.60
2017-11-17T09:27:28.879Z,7.60
2017-11-17T09:29:57.890Z,7.60
2017-11-17T09:32:26.334Z,7.60
2017-11-17T09:34:54.588Z,7.60
2017-11-17T09:37:22.828Z,7.50
2017-11-17T09:39:51.109Z,7.50
2017-11-17T09:42:19.350Z,7.60
2017-11-17T09:44:47.606Z,7.60
2017-11-17T09:47:15.873Z,7.60
2017-11-17T09:49:44.112Z,7.70
2017-11-17T09:52:12.360Z,7.70
2017-11-17T09:54:41.463Z,7.70
2017-11-17T09:57:09.735Z,7.70
2017-11-17T09:59:38.107Z,7.80
2017-11-17T10:02:07.143Z,8.00
2017-11-17T10:04:35.386Z,8.00
2017-11-17T10:07:03.640Z,8.10
2017-11-17T10:09:31.903Z,8.10
2017-11-17T10:12:00.182Z,8.10
2017-11-17T10:14:28.695Z,8.10
2017-11-17T10:16:57.794Z,8.30
2017-11-17T10:19:26.095Z,8.20
2017-11-17T10:21:54.339Z,8.30
2017-11-17T10:24:22.609Z,8.50
2017-11-17T10:26:50.852Z,8.50
2017-11-17T10:29:19.096Z,8.50
2017-11-17T10:31:47.367Z,8.40
2017-11-17T10:34:15.615Z,8.40
2017-11-17T10:36:43.959Z,8.60
2017-11-17T10:39:12.528Z,8.70
2017-11-17T10:41:40.772Z,8.80
2017-11-17T10:44:09.019Z,8.80
2017-11-17T10:46:37.451Z,8.90
2017-11-17T10:49:05.695Z,8.90
2017-11-17T10:51:34.703Z,8.90
2017-11-17T10:54:02.989Z,8.90
2017-11-17T10:56:31.232Z,8.90
2017-11-17T10:59:04.475Z,8.90
2017-11-17T11:01:32.740Z,8.80
2017-11-17T11:04:00.974Z,8.80
2017-11-17T11:06:29.385Z,8.80
2017-11-17T11:08:57.620Z,8.80
2017-11-17T11:11:31.522Z,8.80
2017-11-17T11:13:59.770Z,8.80
2017-11-17T11:16:28.028Z,8.80
2017-11-17T11:18:56.737Z,8.80
2017-11-17T11:21:24.984Z,8.80
2017-11-17T11:23:53.224Z,8.70
2017-11-17T11:26:22.116Z,8.70
2017-11-17T11:28:50.353Z,8.80
2017-11-17T11:31:18.599Z,8.70
2017-11-17T11:33:46.873Z,8.70
2017-11-17T11:36:15.103Z,8.70
2017-11-17T11:38:43.395Z,8.70
2017-11-17T11:41:11.840Z,8.60
2017-11-17T11:43:40.080Z,8.70
2017-11-17T11:46:08.329Z,8.70
2017-11-17T11:48:36.595Z,8.80
2017-11-17T11:51:04.840Z,8.80
2017-11-17T11:53:33.079Z,8.90
2017-11-17T11:56:02.113Z,9.00
2017-11-17T11:58:30.358Z,9.00
2017-11-17T12:00:58.611Z,8.90
2017-11-17T12:03:27.038Z,8.90
2017-11-17T12:05:55.305Z,9.00
2017-11-17T12:08:23.654Z,8.90
2017-11-17T12:10:52.813Z,8.80
2017-11-17T12:13:21.039Z,8.80
2017-11-17T12:15:49.343Z,8.80
2017-11-17T12:18:17.805Z,8.80
2017-11-17T12:20:46.065Z,9.00
2017-11-17T12:23:14.410Z,9.00
2017-11-17T12:25:42.987Z,8.90
2017-11-17T12:28:11.227Z,8.90
2017-11-17T12:30:39.479Z,8.80
2017-11-17T12:33:08.108Z,8.80
2017-11-17T12:35:36.355Z,8.70
2017-11-17T12:38:04.612Z,8.70
2017-11-17T12:40:32.884Z,8.70
2017-11-17T12:43:01.899Z,8.70
2017-11-17T12:45:30.151Z,8.70
2017-11-17T12:47:58.815Z,8.70
2017-11-17T12:50:27.071Z,8.70
2017-11-17T12:52:55.316Z,8.70
2017-11-17T12:55:23.582Z,8.60
2017-11-17T12:57:51.873Z,8.70
2017-11-17T13:00:20.091Z,8.70
2017-11-17T13:02:48.357Z,8.70
2017-11-17T13:05:16.595Z,8.80
2017-11-17T13:07:44.844Z,8.80
2017-11-17T13:10:13.430Z,8.80
2017-11-17T13:12:42.477Z,8.80
2017-11-17T13:15:10.707Z,8.80
2017-11-17T13:17:38.986Z,8.80
2017-11-17T13:20:08.804Z,8.80
2017-11-17T13:22:37.828Z,8.80
2017-11-17T13:25:06.102Z,8.80
2017-11-17T13:27:34.339Z,8.80
2017-11-17T13:30:02.597Z,8.80
2017-11-17T13:32:35.347Z,8.80
2017-11-17T13:35:03.609Z,8.80
2017-11-17T13:37:31.858Z,8.70
2017-11-17T13:40:00.143Z,8.80
2017-11-17T13:42:29.154Z,8.80
2017-11-17T13:44:57.614Z,8.80
2017-11-17T13:47:26.179Z,8.80
2017-11-17T13:49:54.411Z,8.80
2017-11-17T13:52:22.651Z,8.80
2017-11-17T13:54:51.739Z,8.80
2017-11-17T13:57:19.995Z,8.80
2017-11-17T13:59:48.235Z,8.80
2017-11-17T14:02:16.510Z,8.80
2017-11-17T14:04:46.970Z,8.80
2017-11-17T14:07:15.356Z,8.80
2017-11-17T14:09:43.625Z,8.80
2017-11-17T14:12:11.886Z,8.80
2017-11-17T14:14:40.124Z,8.80
2017-11-17T14:17:08.452Z,8.80
2017-11-17T14:19:36.697Z,8.80
2017-11-17T14:22:04.944Z,8.80
2017-11-17T14:24:33.422Z,8.80
2017-11-17T14:27:02.447Z,8.80
2017-11-17T14:29:30.703Z,8.80
2017-11-17T14:31:58.975Z,8.80
2017-11-17T14:34:27.223Z,8.80
2017-11-17T14:36:55.473Z,8.80
2017-11-17T14:39:23.883Z,8.80
2017-11-17T14:41:52.130Z,8.80
2017-11-17T14:44:20.375Z,8.70
2017-11-17T14:46:48.658Z,8.70
2017-11-17T14:49:16.898Z,8.70
2017-11-17T14:51:45.935Z,8.70
2017-11-17T14:54:14.214Z,8.70
2017-11-17T14:56:42.458Z,8.70
2017-11-17T14:59:10.768Z,8.70
2017-11-17T15:01:39.118Z,8.70
2017-11-17T15:04:08.131Z,8.70
2017-11-17T15:06:36.390Z,8.70
2017-11-17T15:09:04.908Z,8.70
2017-11-17T15:11:33.213Z,8.70
2017-11-17T15:14:01.461Z,8.80
2017-11-17T15:16:29.732Z,8.70
2017-11-17T15:18:58.001Z,8.70
2017-11-17T15:21:26.754Z,8.70
2017-11-17T15:23:55.857Z,8.70
2017-11-17T15:26:24.111Z,8.70
2017-11-17T15:28:52.365Z,8.80
2017-11-17T15:31:20.635Z,8.80
2017-11-17T15:33:48.883Z,8.80
2017-11-17T15:36:18.247Z,8.80
2017-11-17T15:38:46.508Z,8.80
2017-11-17T15:41:14.792Z,8.80
2017-11-17T15:43:43.050Z,8.70
2017-11-17T15:46:11.470Z,8.70
2017-11-17T15:48:40.697Z,8.60
2017-11-17T15:51:08.929Z,8.60
2017-11-17T15:53:37.218Z,8.60
2017-11-17T15:56:06.231Z,8.70
2017-11-17T15:58:34.579Z,8.60
2017-11-17T16:01:02.835Z,8.70
2017-11-17T16:03:31.087Z,8.70
2017-11-17T16:05:59.399Z,8.60
2017-11-17T16:08:27.850Z,8.60
2017-11-17T16:10:56.092Z,8.50
2017-11-17T16:13:24.556Z,8.40
2017-11-17T16:15:53.616Z,8.50
2017-11-17T16:18:21.924Z,8.50
2017-11-17T16:20:50.283Z,8.50
2017-11-17T16:23:18.686Z,8.50
2017-11-17T16:25:47.698Z,8.50
2017-11-17T16:28:16.959Z,8.50
2017-11-17T16:30:45.412Z,8.50
2017-11-17T16:33:13.707Z,8.50
2017-11-17T16:35:42.087Z,8.50
2017-11-17T16:38:10.361Z,8.50
2017-11-17T16:40:38.624Z,8.50
2017-11-17T16:43:06.883Z,8.50
2017-11-17T16:45:35.164Z,8.60
2017-11-17T16:48:03.480Z,8.60
2017-11-17T16:50:31.756Z,8.60
2017-11-17T16:53:00.209Z,8.60
2017-11-17T16:55:28.458Z,8.60
2017-11-17T16:57:56.711Z,8.60
2017-11-17T17:00:25.025Z,8.50
2017-11-17T17:02:53.266Z,8.50
2017-11-17T17:05:23.567Z,8.60
2017-11-17T17:07:51.859Z,8.60
2017-11-17T17:10:20.098Z,8.60
2017-11-17T17:12:48.459Z,8.60
2017-11-17T17:15:17.145Z,8.60
2017-11-17T17:17:45.396Z,8.60
2017-11-17T17:20:13.643Z,8.60
2017-11-17T17:22:42.095Z,8.60
2017-11-17T17:25:10.371Z,8.60
2017-11-17T17:27:38.615Z,8.60
2017-11-17T17:30:06.888Z,8.60
2017-11-17T17:32:35.183Z,8.70
2017-11-17T17:35:03.420Z,8.60
2017-11-17T17:37:31.961Z,8.60
2017-11-17T17:40:00.211Z,8.60
2017-11-17T17:42:28.470Z,8.50
2017-11-17T17:44:56.918Z,8.50
2017-11-17T17:47:25.189Z,8.40
2017-11-17T17:49:53.429Z,8.40
2017-11-17T17:52:21.713Z,8.40
2017-11-17T17:54:49.960Z,8.40
2017-11-17T17:57:18.975Z,8.40
2017-11-17T17:59:47.295Z,8.40
2017-11-17T18:02:15.562Z,8.50
2017-11-17T18:04:43.836Z,8.40
2017-11-17T18:07:12.147Z,8.40
2017-11-17T18:09:41.155Z,8.40
2017-11-17T18:12:10.370Z,8.40
2017-11-17T18:14:38.836Z,8.40
2017-11-17T18:17:09.611Z,8.40
2017-11-17T18:19:37.866Z,8.40
2017-11-17T18:22:06.370Z,8.30
2017-11-17T18:24:34.626Z,8.30
2017-11-17T18:27:03.878Z,8.30
2017-11-17T18:29:32.257Z,8.30
2017-11-17T18:32:01.335Z,8.50
2017-11-17T18:34:29.590Z,8.40
2017-11-17T18:36:58.316Z,8.50
2017-11-17T18:39:26.591Z,8.50
2017-11-17T18:41:54.977Z,8.60
2017-11-17T18:44:23.808Z,8.40
2017-11-17T18:46:53.925Z,8.40
2017-11-17T18:49:22.282Z,8.40
2017-11-17T18:51:53.461Z,8.40
2017-11-17T18:54:23.934Z,8.40
2017-11-17T18:56:52.304Z,8.50
2017-11-17T18:59:21.701Z,8.40
2017-11-17T19:01:49.982Z,8.30
2017-11-17T19:04:18.659Z,8.30
2017-11-17T19:06:47.159Z,8.30
2017-11-17T19:09:17.051Z,8.30
2017-11-17T19:11:45.561Z,8.30
2017-11-17T19:14:15.924Z,8.20
2017-11-17T19:16:44.922Z,8.10
2017-11-17T19:19:15.407Z,8.10
2017-11-17T19:21:43.823Z,8.10
2017-11-17T19:24:12.963Z,8.10
2017-11-17T19:26:41.243Z,8.20
2017-11-17T19:29:13.409Z,8.30
2017-11-17T19:31:42.244Z,8.30
2017-11-17T19:34:11.247Z,8.40
2017-11-17T19:36:41.152Z,8.50
2017-11-17T19:39:10.751Z,8.40
2017-11-17T19:41:40.964Z,8.50
2017-11-17T19:44:10.010Z,8.40
2017-11-17T19:46:38.352Z,8.40
2017-11-17T19:49:07.372Z,8.40
2017-11-17T19:51:35.719Z,8.40
2017-11-17T19:54:04.219Z,8.40
2017-11-17T19:56:32.479Z,8.50
2017-11-17T19:59:01.523Z,8.50
2017-11-17T20:01:29.827Z,8.50
2017-11-17T20:03:58.084Z,8.50
2017-11-17T20:06:26.349Z,8.50
2017-11-17T20:08:54.672Z,8.50
2017-11-17T20:11:22.939Z,8.50
2017-11-17T20:13:51.792Z,8.50
2017-11-17T20:16:20.051Z,8.50
2017-11-17T20:18:48.534Z,8.50
2017-11-17T20:21:18.660Z,8.50
2017-11-17T20:23:47.000Z,8.50
2017-11-17T20:26:15.620Z,8.50
2017-11-17T20:28:43.917Z,8.60
2017-11-17T20:31:13.226Z,8.60
2017-11-17T20:33:41.787Z,8.60
2017-11-17T20:36:10.288Z,8.50
2017-11-17T20:38:41.746Z,8.50
2017-11-17T20:41:10.036Z,8.60
2017-11-17T20:43:39.420Z,8.60
2017-11-17T20:46:07.689Z,8.60
2017-11-17T20:48:35.932Z,8.60
2017-11-17T20:51:04.239Z,8.60
2017-11-17T20:53:32.690Z,8.60
2017-11-17T20:56:00.918Z,8.60
2017-11-17T20:58:29.442Z,8.50
2017-11-17T21:00:57.686Z,8.50
2017-11-17T21:03:26.064Z,8.50
2017-11-17T21:05:54.377Z,8.50
2017-11-17T21:08:22.618Z,8.50
2017-11-17T21:10:50.878Z,8.50
2017-11-17T21:13:19.140Z,8.50
2017-11-17T21:15:47.426Z,8.60
2017-11-17T21:18:15.666Z,8.50
2017-11-17T21:20:44.789Z,8.50
2017-11-17T21:23:13.044Z,8.60
2017-11-17T21:25:41.474Z,8.60
2017-11-17T21:28:10.212Z,8.60
2017-11-17T21:30:38.456Z,8.50
2017-11-17T21:33:06.925Z,8.50
2017-11-17T21:35:35.230Z,8.60
2017-11-17T21:38:03.475Z,8.60
2017-11-17T21:40:35.772Z,8.60
2017-11-17T21:43:04.123Z,8.60
2017-11-17T21:45:32.385Z,8.60
2017-11-17T21:48:00.627Z,8.50
2017-11-17T21:50:31.136Z,8.60
2017-11-17T21:53:00.150Z,8.60
2017-11-17T21:55:28.406Z,8.60
2017-11-17T21:57:56.875Z,8.60
2017-11-17T22:00:25.895Z,8.60
2017-11-17T22:02:54.233Z,8.50
2017-11-17T22:05:22.650Z,8.60
2017-11-17T22:07:50.897Z,8.60
2017-11-17T22:10:19.149Z,8.60
2017-11-17T22:12:52.348Z,8.60
2017-11-17T22:15:21.642Z,8.70
2017-11-17T22:17:49.973Z,8.60
2017-11-17T22:20:18.936Z,8.60
2017-11-17T22:22:47.299Z,8.70
2017-11-17T22:25:15.543Z,8.70
2017-11-17T22:27:44.162Z,8.70
2017-11-17T22:30:12.411Z,8.70
2017-11-17T22:32:42.767Z,8.70
2017-11-17T22:35:11.039Z,8.70
2017-11-17T22:37:39.290Z,8.70
2017-11-17T22:40:07.538Z,8.70
2017-11-17T22:42:37.060Z,8.60
2017-11-17T22:45:05.311Z,8.60
2017-11-17T22:47:34.462Z,8.70
2017-11-17T22:50:03.003Z,8.70
2017-11-17T22:52:32.295Z,8.70
2017-11-17T22:55:01.565Z,8.70
2017-11-17T22:57:29.827Z,8.70
2017-11-17T22:59:58.103Z,8.70
2017-11-17T23:02:26.339Z,8.80
2017-11-17T23:04:55.147Z,8.80
2017-11-17T23:07:23.398Z,8.80
2017-11-17T23:09:51.639Z,8.80
2017-11-17T23:12:20.284Z,8.80
2017-11-17T23:14:48.527Z,8.80
2017-11-17T23:17:16.770Z,8.80
2017-11-17T23:19:45.099Z,8.80
2017-11-17T23:22:13.345Z,8.80
2017-11-17T23:24:41.591Z,8.70
2017-11-17T23:27:09.859Z,8.60
2017-11-17T23:29:38.111Z,8.60
2017-11-17T23:32:06.655Z,8.60
2017-11-17T23:34:35.816Z,8.60
2017-11-17T23:37:04.054Z,8.60
2017-11-17T23:39:32.299Z,8.70
2017-11-17T23:42:00.567Z,8.70
2017-11-17T23:44:28.813Z,8.70
2017-11-17T23:46:57.059Z,8.60
2017-11-17T23:49:25.477Z,8.70
2017-11-17T23:51:53.721Z,8.70
2017-11-17T23:54:21.960Z,8.60
2017-11-17T23:56:50.499Z,8.50
2017-11-17T23:59:18.781Z,8.50
